createdAt,value
2018-03-28T00:02:21.256Z,52.80
2018-03-28T00:04:49.134Z,52.17
2018-03-28T00:07:17.050Z,53.23
2018-03-28T00:09:45.686Z,54.53
2018-03-28T00:12:13.576Z,50.87
2018-03-28T00:14:41.486Z,52.90
2018-03-28T00:17:09.417Z,53.97
2018-03-28T00:19:37.378Z,52.47
2018-03-28T00:22:05.369Z,53.13
2018-03-28T00:24:34.015Z,53.20
2018-03-28T00:27:01.883Z,52.47
2018-03-28T00:29:29.865Z,53.10
2018-03-28T00:31:57.762Z,53.57
2018-03-28T00:34:26.412Z,53.53
2018-03-28T00:36:54.294Z,56.20
2018-03-28T00:39:23.040Z,55.27
2018-03-28T00:41:50.972Z,54.57
2018-03-28T00:44:18.886Z,54.07
2018-03-28T00:46:46.804Z,52.60
2018-03-28T00:49:15.517Z,52.03
2018-03-28T00:51:43.422Z,53.73
2018-03-28T00:54:11.294Z,52.27
2018-03-28T00:56:39.166Z,55.17
2018-03-28T00:59:07.051Z,53.13
2018-03-28T01:01:35.667Z,53.67
2018-03-28T01:04:03.561Z,53.33
2018-03-28T01:06:31.497Z,53.57
2018-03-28T01:08:59.360Z,53.03
2018-03-28T01:11:27.237Z,53.43
2018-03-28T01:13:55.125Z,52.57
2018-03-28T01:16:23.022Z,51.07
2018-03-28T01:18:51.672Z,53.63
2018-03-28T01:21:19.609Z,52.57
2018-03-28T01:23:47.493Z,51.97
2018-03-28T01:26:15.390Z,50.27
2018-03-28T01:28:43.373Z,49.73
2018-03-28T01:31:12.070Z,51.17
2018-03-28T01:33:40.038Z,49.17
2018-03-28T01:36:08.700Z,48.63
2018-03-28T01:38:36.631Z,49.10
2018-03-28T01:41:04.636Z,51.53
2018-03-28T01:43:32.501Z,48.43
2018-03-28T01:46:00.454Z,48.93
2018-03-28T01:48:28.337Z,47.70
2018-03-28T01:50:56.355Z,50.23
2018-03-28T01:53:24.359Z,48.57
2018-03-28T01:55:52.225Z,48.93
2018-03-28T01:58:20.141Z,47.63
2018-03-28T02:00:48.836Z,51.03
2018-03-28T02:03:16.743Z,50.30
2018-03-28T02:05:44.680Z,49.40
2018-03-28T02:08:12.578Z,46.43
2018-03-28T02:10:40.492Z,49.30
2018-03-28T02:13:08.434Z,48.77
2018-03-28T02:15:36.411Z,47.90
2018-03-28T02:18:05.113Z,45.13
2018-03-28T02:20:33.751Z,47.40
2018-03-28T02:23:01.633Z,47.03
2018-03-28T02:25:29.538Z,47.20
2018-03-28T02:27:57.427Z,44.67
2018-03-28T02:30:25.385Z,45.20
2018-03-28T02:32:53.278Z,45.63
2018-03-28T02:35:21.246Z,43.77
2018-03-28T02:37:49.117Z,43.83
2018-03-28T02:40:17.084Z,43.67
2018-03-28T02:42:45.017Z,43.73
2018-03-28T02:45:12.945Z,42.50
2018-03-28T02:47:40.875Z,42.33
2018-03-28T02:50:08.833Z,42.80
2018-03-28T02:52:36.768Z,44.50
2018-03-28T02:55:05.384Z,44.60
2018-03-28T02:57:33.289Z,45.00
2018-03-28T03:00:01.172Z,43.00
2018-03-28T03:02:29.843Z,44.50
2018-03-28T03:04:57.709Z,45.03
2018-03-28T03:07:25.620Z,43.07
2018-03-28T03:09:53.541Z,41.87
2018-03-28T03:12:21.424Z,40.90
2018-03-28T03:14:50.053Z,42.30
2018-03-28T03:17:17.943Z,42.57
2018-03-28T03:19:45.787Z,43.77
2018-03-28T03:22:13.657Z,42.00
2018-03-28T03:24:41.507Z,43.17
2018-03-28T03:27:09.341Z,61.90
2018-03-28T03:29:37.982Z,42.60
2018-03-28T03:32:05.844Z,41.97
2018-03-28T03:34:33.749Z,41.83
2018-03-28T03:37:01.725Z,41.80
2018-03-28T03:39:29.608Z,41.37
2018-03-28T03:41:57.558Z,41.43
2018-03-28T03:44:26.191Z,41.93
2018-03-28T03:46:54.092Z,40.97
2018-03-28T03:49:21.915Z,42.27
2018-03-28T03:51:49.692Z,43.77
2018-03-28T03:54:17.619Z,43.10
2018-03-28T03:56:46.182Z,40.73
2018-03-28T03:59:14.059Z,41.97
2018-03-28T04:01:42.630Z,42.83
2018-03-28T04:04:10.479Z,44.53
2018-03-28T04:06:38.266Z,42.97
2018-03-28T04:09:06.860Z,41.10
2018-03-28T04:11:35.415Z,45.33
2018-03-28T04:14:03.217Z,44.90
2018-03-28T04:16:31.031Z,46.70
2018-03-28T04:18:58.881Z,46.30
2018-03-28T04:21:26.690Z,45.03
2018-03-28T04:23:55.246Z,45.53
2018-03-28T04:26:23.025Z,46.10
2018-03-28T04:28:50.841Z,46.63
2018-03-28T04:31:18.670Z,47.27
2018-03-28T04:33:47.305Z,48.40
2018-03-28T04:36:15.192Z,49.13
2018-03-28T04:38:44.318Z,50.47
2018-03-28T04:41:12.945Z,49.93
2018-03-28T04:43:41.049Z,49.57
2018-03-28T04:46:09.229Z,54.43
2018-03-28T04:48:37.290Z,49.43
2018-03-28T04:51:05.231Z,47.93
2018-03-28T04:53:33.226Z,47.07
2018-03-28T04:56:01.386Z,48.93
2018-03-28T04:58:29.575Z,48.50
2018-03-28T05:00:57.548Z,50.17
2018-03-28T05:03:25.399Z,48.70
2018-03-28T05:05:53.404Z,50.97
2018-03-28T05:08:22.115Z,46.70
2018-03-28T05:10:50.041Z,47.13
2018-03-28T05:13:17.883Z,50.00
2018-03-28T05:15:45.756Z,48.50
2018-03-28T05:18:13.639Z,48.20
2018-03-28T05:20:41.520Z,49.83
2018-03-28T05:23:10.120Z,51.30
2018-03-28T05:25:38.023Z,49.43
2018-03-28T05:28:05.904Z,51.43
2018-03-28T05:31:04.382Z,50.83
2018-03-28T05:33:52.378Z,53.13
2018-03-28T05:36:20.366Z,54.77
2018-03-28T05:38:48.371Z,49.37
2018-03-28T05:41:16.233Z,51.63
2018-03-28T05:43:44.196Z,52.00
2018-03-28T05:46:12.177Z,53.67
2018-03-28T05:48:40.158Z,53.03
2018-03-28T05:51:08.861Z,85.15
2018-03-28T05:53:36.793Z,55.43
2018-03-28T05:56:04.662Z,62.27
2018-03-28T05:58:32.632Z,58.42
2018-03-28T06:01:00.622Z,54.90
2018-03-28T06:03:29.286Z,55.30
2018-03-28T06:05:57.151Z,57.60
2018-03-28T06:08:25.127Z,61.27
2018-03-28T06:10:53.954Z,63.00
2018-03-28T06:13:21.919Z,63.17
2018-03-28T06:15:49.842Z,70.70
2018-03-28T06:18:17.734Z,67.30
2018-03-28T06:20:46.363Z,59.07
2018-03-28T06:23:14.330Z,59.70
2018-03-28T06:25:42.176Z,85.75
2018-03-28T06:28:10.062Z,60.60
2018-03-28T06:30:37.984Z,91.37
2018-03-28T06:33:06.577Z,92.70
2018-03-28T06:35:34.507Z,104.07
2018-03-28T06:38:02.380Z,83.47
2018-03-28T06:40:30.175Z,83.17
2018-03-28T06:42:58.829Z,78.00
2018-03-28T06:45:27.570Z,75.70
2018-03-28T06:47:55.378Z,74.83
2018-03-28T06:50:23.195Z,75.57
2018-03-28T06:55:25.293Z,75.70
2018-03-28T06:57:53.272Z,72.00
2018-03-28T07:00:21.098Z,71.87
2018-03-28T07:02:48.963Z,70.10
2018-03-28T07:05:16.924Z,68.40
2018-03-28T07:07:45.621Z,67.37
2018-03-28T07:10:13.621Z,63.27
2018-03-28T07:12:41.652Z,65.63
2018-03-28T07:15:10.607Z,64.30
2018-03-28T07:17:38.475Z,63.07
2018-03-28T07:20:06.284Z,60.57
2018-03-28T07:22:34.059Z,60.40
2018-03-28T07:25:01.961Z,59.57
2018-03-28T07:27:29.850Z,55.77
2018-03-28T07:29:58.478Z,55.03
2018-03-28T07:32:26.380Z,54.23
2018-03-28T07:34:54.159Z,56.33
2018-03-28T07:37:22.064Z,55.53
2018-03-28T07:39:49.929Z,53.30
2018-03-28T07:42:17.779Z,55.50
2018-03-28T07:44:46.440Z,56.60
2018-03-28T07:47:14.330Z,54.90
2018-03-28T07:49:42.892Z,57.17
2018-03-28T07:52:10.696Z,58.53
2018-03-28T07:54:38.716Z,59.53
2018-03-28T07:57:06.599Z,60.60
2018-03-28T07:59:35.386Z,63.37
2018-03-28T08:02:03.971Z,62.13
2018-03-28T08:04:32.522Z,58.00
2018-03-28T08:07:00.392Z,59.07
2018-03-28T08:09:28.256Z,60.20
2018-03-28T08:11:56.100Z,59.47
2018-03-28T08:14:23.945Z,57.07
2018-03-28T08:16:51.783Z,58.93
2018-03-28T08:19:22.855Z,57.13
2018-03-28T08:21:50.754Z,60.00
2018-03-28T08:24:18.627Z,56.00
2018-03-28T08:26:46.493Z,57.47
2018-03-28T08:29:14.268Z,56.00
2018-03-28T08:31:42.166Z,56.87
2018-03-28T08:34:10.691Z,57.10
2018-03-28T08:36:38.613Z,56.53
2018-03-28T08:39:07.184Z,56.40
2018-03-28T08:41:35.782Z,57.00
2018-03-28T08:44:04.407Z,58.43
2018-03-28T08:46:32.284Z,57.87
2018-03-28T08:49:00.202Z,59.57
2018-03-28T08:51:28.101Z,59.87
2018-03-28T08:53:55.911Z,58.87
2018-03-28T08:56:24.496Z,58.80
2018-03-28T08:58:53.187Z,58.90
2018-03-28T09:01:21.898Z,58.97
2018-03-28T09:03:49.890Z,58.33
2018-03-28T09:06:17.758Z,59.43
2018-03-28T09:08:45.574Z,57.63
2018-03-28T09:11:14.257Z,57.80
2018-03-28T09:13:42.891Z,60.50
2018-03-28T09:16:11.008Z,59.20
2018-03-28T09:18:39.668Z,57.33
2018-03-28T09:21:07.592Z,58.37
2018-03-28T09:23:35.565Z,56.43
2018-03-28T09:26:03.478Z,59.77
2018-03-28T09:28:32.242Z,58.13
2018-03-28T09:31:00.186Z,60.53
2018-03-28T09:33:27.963Z,58.27
2018-03-28T09:35:55.800Z,60.13
2018-03-28T09:38:23.683Z,58.30
2018-03-28T09:40:51.512Z,58.77
2018-03-28T09:43:20.046Z,58.13
2018-03-28T09:45:47.833Z,59.80
2018-03-28T09:48:15.690Z,60.10
2018-03-28T09:50:43.563Z,58.53
2018-03-28T09:53:11.402Z,56.23
2018-03-28T09:55:39.338Z,57.70
2018-03-28T09:58:07.103Z,54.47
2018-03-28T10:00:34.956Z,53.97
2018-03-28T10:03:09.244Z,56.17
2018-03-28T10:05:39.060Z,54.13
2018-03-28T10:08:07.003Z,54.37
2018-03-28T10:10:34.814Z,52.07
2018-03-28T10:13:03.443Z,53.73
2018-03-28T10:15:31.266Z,51.83
2018-03-28T10:17:59.823Z,53.43
2018-03-28T10:20:27.613Z,54.57
2018-03-28T10:22:56.166Z,54.10
2018-03-28T10:25:23.973Z,53.60
2018-03-28T10:27:51.749Z,52.83
2018-03-28T10:30:19.525Z,53.53
2018-03-28T10:32:48.351Z,54.53
2018-03-28T10:35:16.212Z,55.20
2018-03-28T10:37:44.072Z,54.60
2018-03-28T10:40:11.875Z,54.00
2018-03-28T10:42:40.580Z,54.07
2018-03-28T10:45:08.436Z,53.90
2018-03-28T10:47:36.212Z,53.40
2018-03-28T10:50:04.060Z,53.97
2018-03-28T10:52:32.684Z,53.23
2018-03-28T10:55:00.472Z,54.47
2018-03-28T10:57:28.236Z,50.20
2018-03-28T10:59:56.123Z,50.13
2018-03-28T11:02:24.807Z,46.93
2018-03-28T11:04:53.521Z,46.77
2018-03-28T11:07:21.395Z,45.43
2018-03-28T11:09:49.191Z,45.43
2018-03-28T11:12:17.003Z,43.03
2018-03-28T11:14:45.589Z,41.77
2018-03-28T11:17:13.414Z,43.23
2018-03-28T11:19:41.240Z,42.10
2018-03-28T11:22:09.202Z,42.73
2018-03-28T11:24:37.135Z,40.83
2018-03-28T11:27:05.745Z,42.83
2018-03-28T11:29:33.798Z,40.70
2018-03-28T11:32:02.338Z,41.97
2018-03-28T11:34:30.153Z,42.17
2018-03-28T11:36:57.930Z,41.53
2018-03-28T11:39:25.735Z,41.67
2018-03-28T11:41:53.507Z,44.33
2018-03-28T11:44:21.296Z,43.97
2018-03-28T11:46:49.847Z,46.27
2018-03-28T11:49:17.612Z,46.90
2018-03-28T11:51:45.425Z,46.00
2018-03-28T11:54:13.935Z,46.60
2018-03-28T11:56:41.724Z,47.13
2018-03-28T11:59:09.499Z,45.80
2018-03-28T12:01:37.280Z,46.10
2018-03-28T12:04:05.795Z,45.00
2018-03-28T12:06:33.656Z,44.77
2018-03-28T12:09:01.445Z,44.20
2018-03-28T12:11:29.271Z,45.20
2018-03-28T12:13:57.032Z,45.12
2018-03-28T12:16:24.795Z,45.07
2018-03-28T12:18:52.534Z,46.63
2018-03-28T12:21:20.303Z,46.40
2018-03-28T12:23:48.852Z,41.05
2018-03-28T12:26:16.635Z,44.57
2018-03-28T12:28:44.387Z,47.53
2018-03-28T12:31:12.234Z,48.40
2018-03-28T12:33:40.031Z,49.43
2018-03-28T12:36:07.902Z,50.33
2018-03-28T12:38:35.795Z,50.93
2018-03-28T12:41:03.575Z,52.03
2018-03-28T12:43:31.404Z,52.47
2018-03-28T12:45:59.947Z,54.63
2018-03-28T12:48:27.731Z,52.90
2018-03-28T12:50:55.492Z,54.63
2018-03-28T12:53:23.277Z,54.53
2018-03-28T12:55:51.828Z,65.17
2018-03-28T12:58:19.610Z,57.63
2018-03-28T13:00:47.378Z,57.60
2018-03-28T13:03:15.186Z,56.33
2018-03-28T13:05:43.014Z,56.30
2018-03-28T13:08:11.542Z,57.43
2018-03-28T13:10:39.286Z,58.77
2018-03-28T13:13:07.063Z,58.23
2018-03-28T13:15:34.831Z,59.07
2018-03-28T13:18:02.599Z,58.57
2018-03-28T13:20:30.368Z,57.07
2018-03-28T13:22:58.205Z,60.43
2018-03-28T13:25:25.981Z,59.20
2018-03-28T13:28:03.474Z,59.80
2018-03-28T13:30:33.017Z,60.40
2018-03-28T13:33:03.620Z,60.03
2018-03-28T13:35:38.144Z,61.07
2018-03-28T13:38:12.902Z,59.97
2018-03-28T13:40:44.575Z,59.80
2018-03-28T13:43:13.136Z,64.40
2018-03-28T13:45:46.101Z,61.87
2018-03-28T13:48:18.813Z,61.93
2018-03-28T13:50:51.567Z,61.07
2018-03-28T13:53:24.362Z,57.50
2018-03-28T13:55:52.232Z,59.70
2018-03-28T13:58:20.032Z,56.83
2018-03-28T14:00:47.862Z,55.03
2018-03-28T14:03:15.628Z,56.83
2018-03-28T14:05:43.453Z,53.23
2018-03-28T14:08:11.245Z,54.43
2018-03-28T14:10:39.043Z,54.03
2018-03-28T14:13:06.849Z,57.47
2018-03-28T14:15:34.661Z,56.37
2018-03-28T14:18:03.231Z,55.90
2018-03-28T14:20:31.004Z,55.00
2018-03-28T14:22:58.780Z,56.87
2018-03-28T14:25:27.332Z,54.57
2018-03-28T14:27:55.094Z,53.23
2018-03-28T14:30:22.891Z,52.97
2018-03-28T14:32:51.436Z,53.40
2018-03-28T14:35:19.202Z,54.13
2018-03-28T14:37:47.779Z,51.63
2018-03-28T14:40:15.615Z,52.10
2018-03-28T14:42:54.586Z,50.53
2018-03-28T14:45:11.369Z,48.73
2018-03-28T14:47:39.272Z,51.43
2018-03-28T14:50:07.937Z,49.87
2018-03-28T14:52:35.703Z,52.07
2018-03-28T14:55:03.540Z,49.53
2018-03-28T14:57:31.400Z,51.50
2018-03-28T14:59:59.174Z,51.37
2018-03-28T15:02:27.708Z,53.50
2018-03-28T15:04:56.257Z,51.67
2018-03-28T15:07:24.046Z,50.60
2018-03-28T15:09:52.599Z,50.70
2018-03-28T15:12:20.386Z,51.47
2018-03-28T15:14:48.185Z,50.47
2018-03-28T15:17:15.995Z,49.83
2018-03-28T15:19:43.768Z,50.23
2018-03-28T15:22:11.551Z,52.47
2018-03-28T15:24:40.118Z,51.37
2018-03-28T15:27:07.939Z,52.47
2018-03-28T15:29:35.734Z,51.33
2018-03-28T15:32:03.576Z,53.83
2018-03-28T15:34:31.346Z,53.53
2018-03-28T15:36:59.128Z,52.07
2018-03-28T15:39:26.959Z,50.43
2018-03-28T15:41:55.540Z,51.53
2018-03-28T15:44:23.358Z,50.27
2018-03-28T15:46:51.923Z,51.33
2018-03-28T15:49:21.215Z,51.03
2018-03-28T15:51:49.075Z,52.67
2018-03-28T15:54:16.863Z,50.23
2018-03-28T15:56:44.622Z,51.33
2018-03-28T15:59:12.435Z,50.73
2018-03-28T16:01:40.216Z,52.40
2018-03-28T16:04:08.011Z,51.30
2018-03-28T16:06:35.790Z,51.73
2018-03-28T16:09:03.711Z,53.97
2018-03-28T16:11:31.625Z,55.27
2018-03-28T16:13:59.446Z,55.10
2018-03-28T16:16:27.203Z,54.83
2018-03-28T16:18:55.060Z,56.63
2018-03-28T16:21:22.834Z,57.83
2018-03-28T16:23:50.634Z,55.37
2018-03-28T16:26:18.449Z,55.90
2018-03-28T16:28:46.243Z,54.27
2018-03-28T16:31:14.888Z,56.03
2018-03-28T16:33:42.651Z,56.27
2018-03-28T16:36:11.200Z,54.42
2018-03-28T16:38:39.021Z,55.23
2018-03-28T16:41:06.774Z,55.47
2018-03-28T16:43:34.587Z,54.63
2018-03-28T16:46:02.345Z,55.27
2018-03-28T16:48:30.212Z,57.10
2018-03-28T16:50:58.005Z,57.37
2018-03-28T16:53:26.548Z,57.80
2018-03-28T16:55:54.390Z,62.73
2018-03-28T16:58:22.199Z,63.60
2018-03-28T17:00:50.007Z,63.57
2018-03-28T17:03:17.855Z,64.57
2018-03-28T17:05:46.433Z,62.37
2018-03-28T17:08:15.078Z,61.93
2018-03-28T17:10:42.875Z,62.50
2018-03-28T17:13:11.471Z,63.87
2018-03-28T17:15:40.067Z,62.70
2018-03-28T17:18:07.883Z,61.80
2018-03-28T17:20:35.688Z,60.50
2018-03-28T17:23:03.488Z,63.63
2018-03-28T17:25:31.276Z,64.53
2018-03-28T17:27:59.074Z,66.50
2018-03-28T17:30:27.647Z,66.10
2018-03-28T17:32:56.331Z,68.83
2018-03-28T17:35:24.883Z,68.20
2018-03-28T17:37:52.720Z,65.17
2018-03-28T17:40:20.514Z,64.33
2018-03-28T17:42:48.380Z,62.37
2018-03-28T17:45:16.193Z,65.73
2018-03-28T17:47:44.031Z,67.93
2018-03-28T17:50:11.878Z,67.27
2018-03-28T17:52:39.668Z,64.87
2018-03-28T17:55:08.227Z,63.37
2018-03-28T17:57:35.984Z,62.00
2018-03-28T18:00:03.958Z,58.57
2018-03-28T18:02:31.799Z,62.40
2018-03-28T18:04:59.578Z,61.23
2018-03-28T18:07:27.443Z,62.70
2018-03-28T18:09:55.375Z,67.90
2018-03-28T18:12:23.185Z,71.53
2018-03-28T18:14:50.996Z,83.23
2018-03-28T18:17:18.779Z,94.27
2018-03-28T18:19:46.578Z,75.00
2018-03-28T18:22:14.432Z,73.63
2018-03-28T18:24:42.270Z,73.07
2018-03-28T18:27:10.134Z,92.17
2018-03-28T18:29:38.012Z,110.60
2018-03-28T18:32:05.850Z,102.77
2018-03-28T18:34:33.665Z,116.00
2018-03-28T18:37:01.623Z,112.67
2018-03-28T18:39:30.268Z,106.70
2018-03-28T18:41:58.063Z,98.53
2018-03-28T18:44:25.862Z,92.33
2018-03-28T18:46:53.672Z,87.93
2018-03-28T18:49:21.492Z,82.03
2018-03-28T18:51:49.283Z,104.53
2018-03-28T18:54:17.148Z,99.70
2018-03-28T18:56:45.742Z,105.73
2018-03-28T18:59:13.540Z,101.67
2018-03-28T19:01:41.600Z,104.97
2018-03-28T19:04:09.403Z,91.57
2018-03-28T19:06:37.265Z,94.77
2018-03-28T19:09:05.152Z,89.70
2018-03-28T19:11:33.820Z,76.90
2018-03-28T19:14:01.622Z,75.10
2018-03-28T19:16:29.402Z,70.23
2018-03-28T19:18:57.170Z,71.17
2018-03-28T19:21:25.031Z,70.57
2018-03-28T19:23:52.886Z,78.70
2018-03-28T19:26:20.701Z,76.13
2018-03-28T19:28:48.524Z,78.73
2018-03-28T19:31:16.426Z,74.77
2018-03-28T19:33:44.252Z,78.37
2018-03-28T19:36:12.031Z,76.20
2018-03-28T19:38:39.917Z,78.17
2018-03-28T19:41:08.464Z,76.63
2018-03-28T19:43:36.282Z,73.70
2018-03-28T19:46:04.165Z,78.03
2018-03-28T19:48:32.833Z,55.97
2018-03-28T19:51:00.740Z,75.63
2018-03-28T19:53:28.620Z,79.63
2018-03-28T19:55:56.528Z,73.07
2018-03-28T19:58:24.397Z,78.00
2018-03-28T20:00:52.433Z,73.07
2018-03-28T20:03:20.292Z,75.47
2018-03-28T20:05:48.218Z,77.87
2018-03-28T20:08:16.781Z,73.03
2018-03-28T20:10:44.613Z,74.97
2018-03-28T20:13:12.478Z,72.87
2018-03-28T20:15:40.404Z,74.10
2018-03-28T20:18:08.996Z,73.50
2018-03-28T20:20:37.600Z,69.90
2018-03-28T20:23:05.503Z,68.77
2018-03-28T20:25:33.294Z,68.17
2018-03-28T20:28:01.895Z,47.37
2018-03-28T20:30:29.741Z,69.15
2018-03-28T20:33:00.012Z,71.17
2018-03-28T20:35:27.973Z,66.50
2018-03-28T20:37:56.143Z,70.00
2018-03-28T20:40:24.162Z,68.37
2018-03-28T20:42:52.142Z,65.60
2018-03-28T20:45:21.001Z,49.80
2018-03-28T20:47:49.128Z,68.85
2018-03-28T20:50:17.142Z,48.70
2018-03-28T20:52:45.223Z,68.07
2018-03-28T20:55:13.088Z,70.50
2018-03-28T20:57:47.889Z,48.50
2018-03-28T21:00:15.685Z,47.87
2018-03-28T21:02:43.484Z,69.65
2018-03-28T21:05:11.318Z,71.85
2018-03-28T21:07:39.282Z,70.37
2018-03-28T21:10:07.963Z,70.78
2018-03-28T21:12:35.778Z,69.73
2018-03-28T21:15:03.683Z,70.50
2018-03-28T21:17:31.517Z,70.70
2018-03-28T21:19:59.318Z,69.53
2018-03-28T21:22:27.132Z,70.23
2018-03-28T21:24:55.736Z,69.75
2018-03-28T21:27:23.524Z,69.60
2018-03-28T21:29:51.454Z,73.97
2018-03-28T21:32:19.344Z,69.83
2018-03-28T21:34:47.147Z,49.60
2018-03-28T21:37:15.024Z,67.50
2018-03-28T21:39:43.603Z,66.47
2018-03-28T21:42:12.278Z,68.37
2018-03-28T21:44:40.055Z,47.37
2018-03-28T21:47:08.616Z,48.93
2018-03-28T21:49:36.572Z,68.13
2018-03-28T21:52:04.443Z,69.78
2018-03-28T21:54:33.722Z,69.50
2018-03-28T21:57:01.514Z,49.77
2018-03-28T21:59:29.551Z,70.47
2018-03-28T22:01:57.311Z,48.70
2018-03-28T22:04:25.110Z,72.47
2018-03-28T22:06:52.852Z,49.03
2018-03-28T22:09:20.683Z,48.30
2018-03-28T22:11:48.477Z,48.87
2018-03-28T22:14:16.293Z,49.17
2018-03-28T22:16:44.893Z,47.90
2018-03-28T22:19:12.728Z,49.10
2018-03-28T22:21:40.503Z,47.17
2018-03-28T22:24:09.269Z,48.33
2018-03-28T22:26:37.130Z,46.22
2018-03-28T22:29:04.998Z,48.07
2018-03-28T22:31:32.805Z,47.37
2018-03-28T22:34:01.343Z,45.90
2018-03-28T22:36:29.104Z,45.27
2018-03-28T22:38:56.974Z,45.33
2018-03-28T22:41:24.840Z,43.40
2018-03-28T22:43:52.704Z,47.73
2018-03-28T22:46:20.571Z,45.30
2018-03-28T22:48:48.346Z,42.05
2018-03-28T22:51:16.143Z,43.87
2018-03-28T22:53:43.927Z,43.43
2018-03-28T22:56:11.745Z,63.28
2018-03-28T22:58:40.412Z,61.37
2018-03-28T23:01:08.209Z,41.47
2018-03-28T23:03:36.770Z,61.17
2018-03-28T23:06:04.731Z,42.30
2018-03-28T23:08:32.598Z,61.13
2018-03-28T23:11:00.564Z,41.50
2018-03-28T23:13:28.427Z,60.33
2018-03-28T23:15:56.295Z,40.57
2018-03-28T23:18:24.261Z,59.63
2018-03-28T23:20:52.145Z,58.47
2018-03-28T23:23:19.944Z,59.17
2018-03-28T23:25:47.839Z,39.03
2018-03-28T23:28:15.693Z,38.40
2018-03-28T23:30:43.592Z,39.67
2018-03-28T23:33:11.416Z,39.57
2018-03-28T23:35:39.329Z,57.55
2018-03-28T23:38:07.149Z,58.38
2018-03-28T23:40:35.055Z,40.23
2018-03-28T23:43:02.924Z,57.50
2018-03-28T23:45:30.891Z,55.63
2018-03-28T23:47:58.755Z,39.57
2018-03-28T23:50:26.624Z,37.63
2018-03-28T23:52:54.490Z,37.37
2018-03-28T23:55:22.256Z,60.33
2018-03-28T23:57:50.039Z,41.40
